createdAt,value
2022-11-29T00:01:46.786Z,15.60
2022-11-29T00:04:17.670Z,14.20
2022-11-29T00:06:46.502Z,14.60
2022-11-29T00:09:15.436Z,14.70
2022-11-29T00:12:02.940Z,15.30
2022-11-29T00:14:31.799Z,15.20
2022-11-29T00:17:04.662Z,15.00
2022-11-29T00:19:35.832Z,15.70
2022-11-29T00:22:05.080Z,15.00
2022-11-29T00:24:34.722Z,15.00
2022-11-29T00:27:03.630Z,14.70
2022-11-29T00:29:32.740Z,15.60
2022-11-29T00:32:01.689Z,15.20
2022-11-29T00:34:30.415Z,15.90
2022-11-29T00:40:01.423Z,16.60
2022-11-29T00:42:30.379Z,16.40
2022-11-29T00:44:59.140Z,16.80
2022-11-29T00:47:28.117Z,15.40
2022-11-29T00:49:56.772Z,15.60
2022-11-29T00:52:25.436Z,16.10
2022-11-29T00:54:54.463Z,15.90
2022-11-29T00:57:23.200Z,15.10
2022-11-29T00:59:52.215Z,16.20
2022-11-29T01:02:21.545Z,15.00
2022-11-29T01:04:50.322Z,15.20
2022-11-29T01:07:19.184Z,15.40
2022-11-29T01:09:47.848Z,15.70
2022-11-29T01:12:21.457Z,15.90
2022-11-29T01:14:51.825Z,15.60
2022-11-29T01:17:20.583Z,15.50
2022-11-29T01:23:23.856Z,15.80
2022-11-29T01:26:08.370Z,15.80
2022-11-29T01:28:38.263Z,15.90
2022-11-29T01:31:13.650Z,15.20
2022-11-29T01:33:42.716Z,15.40
2022-11-29T01:36:13.597Z,14.90
2022-11-29T01:38:42.840Z,15.80
2022-11-29T01:41:15.006Z,15.30
2022-11-29T01:44:13.959Z,15.80
2022-11-29T01:46:46.361Z,15.30
2022-11-29T01:49:28.535Z,15.70
2022-11-29T01:52:23.648Z,14.10
2022-11-29T01:54:57.037Z,15.50
2022-11-29T01:57:26.388Z,16.70
2022-11-29T02:00:01.368Z,16.10
2022-11-29T02:02:37.596Z,15.40
2022-11-29T02:05:07.334Z,15.40
2022-11-29T02:07:37.112Z,16.30
2022-11-29T02:10:07.829Z,17.20
2022-11-29T02:12:55.273Z,16.50
2022-11-29T02:16:07.822Z,14.60
2022-11-29T02:19:20.007Z,14.40
2022-11-29T02:22:14.667Z,15.40
2022-11-29T02:25:23.539Z,14.90
2022-11-29T02:28:41.306Z,15.30
2022-11-29T02:31:57.948Z,14.70
2022-11-29T02:34:48.002Z,14.60
2022-11-29T02:37:28.790Z,15.00
2022-11-29T02:40:41.388Z,15.90
2022-11-29T02:43:53.881Z,15.50
2022-11-29T02:46:47.526Z,15.10
2022-11-29T02:49:28.852Z,14.30
2022-11-29T02:52:03.179Z,14.30
2022-11-29T02:54:58.885Z,14.50
2022-11-29T02:57:56.842Z,15.10
2022-11-29T03:00:26.148Z,15.60
2022-11-29T03:03:17.879Z,14.60
2022-11-29T03:06:12.709Z,14.70
2022-11-29T03:08:56.345Z,14.10
2022-11-29T03:11:58.059Z,14.50
2022-11-29T03:14:47.627Z,14.40
2022-11-29T03:17:40.849Z,14.20
2022-11-29T03:23:19.851Z,14.10
2022-11-29T03:26:25.897Z,14.90
2022-11-29T03:29:07.523Z,13.70
2022-11-29T03:31:46.671Z,13.30
2022-11-29T03:34:43.834Z,13.10
2022-11-29T03:37:28.795Z,13.60
2022-11-29T03:40:08.974Z,16.20
2022-11-29T03:43:03.671Z,20.40
2022-11-29T03:46:01.930Z,24.20
2022-11-29T03:48:37.794Z,25.50
2022-11-29T03:51:40.198Z,28.40
2022-11-29T03:54:13.632Z,34.60
2022-11-29T03:56:43.098Z,37.30
2022-11-29T03:59:29.882Z,38.60
2022-11-29T04:02:40.104Z,37.90
2022-11-29T04:05:39.310Z,40.30
2022-11-29T04:09:19.019Z,42.00
2022-11-29T04:12:22.494Z,42.20
2022-11-29T04:15:48.778Z,45.00
2022-11-29T04:18:59.364Z,45.00
2022-11-29T04:22:02.607Z,46.40
2022-11-29T04:25:09.561Z,46.40
2022-11-29T04:27:51.335Z,45.80
2022-11-29T04:30:25.718Z,44.80
2022-11-29T04:33:25.293Z,46.00
2022-11-29T04:36:12.079Z,49.40
2022-11-29T04:39:21.858Z,66.40
2022-11-29T04:42:18.668Z,46.60
2022-11-29T04:44:54.264Z,47.60
2022-11-29T04:47:41.200Z,46.80
2022-11-29T04:50:47.688Z,48.40
2022-11-29T04:53:56.830Z,46.60
2022-11-29T04:56:52.612Z,45.80
2022-11-29T04:59:26.855Z,44.80
2022-11-29T05:02:08.144Z,47.30
2022-11-29T05:04:59.560Z,49.60
2022-11-29T05:08:03.176Z,47.90
2022-11-29T05:11:22.079Z,48.30
2022-11-29T05:14:35.879Z,47.10
2022-11-29T05:17:31.927Z,46.30
2022-11-29T05:34:45.271Z,63.40
2022-11-29T05:37:39.368Z,58.50
2022-11-29T05:40:43.208Z,60.50
2022-11-29T05:44:05.405Z,56.30
2022-11-29T05:47:06.427Z,53.50
2022-11-29T05:50:19.419Z,55.40
2022-11-29T05:53:06.768Z,54.70
2022-11-29T05:56:03.107Z,55.70
2022-11-29T05:59:03.024Z,53.90
2022-11-29T06:01:56.671Z,55.90
2022-11-29T06:04:53.930Z,55.40
2022-11-29T06:08:06.970Z,53.40
2022-11-29T06:10:41.689Z,52.70
2022-11-29T06:13:45.726Z,51.00
2022-11-29T06:17:09.580Z,53.90
2022-11-29T06:19:53.775Z,59.00
2022-11-29T06:22:46.239Z,53.20
2022-11-29T06:25:27.671Z,56.40
2022-11-29T06:28:31.056Z,55.30
2022-11-29T06:31:27.802Z,54.30
2022-11-29T06:34:11.397Z,54.30
2022-11-29T06:36:58.013Z,53.90
2022-11-29T06:39:28.431Z,52.00
2022-11-29T06:42:04.355Z,53.80
2022-11-29T13:52:47.408Z,0.10
2022-11-29T13:56:15.472Z,0.00
2022-11-29T13:58:56.503Z,0.20
2022-11-29T14:01:30.833Z,0.10
2022-11-29T14:04:32.905Z,0.10
2022-11-29T14:07:24.967Z,0.10
2022-11-29T14:10:32.494Z,0.10
2022-11-29T14:13:02.089Z,0.10
2022-11-29T19:55:59.189Z,23.60
2022-11-29T19:58:27.011Z,24.10
2022-11-29T20:00:54.692Z,23.80
2022-11-29T20:03:22.669Z,22.10
2022-11-29T20:05:55.035Z,22.00
2022-11-29T20:08:22.974Z,24.80
2022-11-29T20:10:50.695Z,22.00
2022-11-29T20:13:18.260Z,22.50
2022-11-29T20:15:46.560Z,23.20
2022-11-29T20:18:14.373Z,22.80
2022-11-29T20:20:42.418Z,20.30
2022-11-29T20:23:10.281Z,21.20
2022-11-29T20:25:38.125Z,20.70
2022-11-29T20:28:06.483Z,24.40
2022-11-29T20:30:34.409Z,21.80
2022-11-29T20:33:02.295Z,23.90
2022-11-29T20:35:30.133Z,18.30
2022-11-29T20:38:36.838Z,20.00
2022-11-29T20:41:19.664Z,19.40
2022-11-29T20:43:55.589Z,21.00
2022-11-29T20:46:25.320Z,21.70
2022-11-29T20:48:53.541Z,20.50
2022-11-29T20:51:31.147Z,20.10
2022-11-29T20:53:58.657Z,20.50
2022-11-29T20:56:28.237Z,21.40
2022-11-29T20:58:56.384Z,23.40
2022-11-29T21:01:24.816Z,24.30
2022-11-29T21:03:52.196Z,21.80
2022-11-29T21:06:19.744Z,23.30
2022-11-29T21:08:47.351Z,19.60
2022-11-29T21:11:15.733Z,22.90
2022-11-29T21:13:43.758Z,12.40
2022-11-29T21:16:16.848Z,20.20
2022-11-29T21:18:44.954Z,20.70
2022-11-29T21:21:20.912Z,22.20
2022-11-29T21:24:20.921Z,23.10
2022-11-29T21:26:52.259Z,23.10
2022-11-29T21:31:52.847Z,20.30
2022-11-29T21:37:00.649Z,18.60
2022-11-29T21:39:39.388Z,21.90
2022-11-29T21:42:06.849Z,16.30
2022-11-29T21:44:34.427Z,22.40
2022-11-29T21:47:01.962Z,22.30
2022-11-29T21:49:29.494Z,24.40
2022-11-29T21:51:59.744Z,21.70
2022-11-29T21:54:28.999Z,22.00
2022-11-29T21:56:56.398Z,22.50
2022-11-29T21:59:27.666Z,22.30
2022-11-29T22:01:55.467Z,18.10
2022-11-29T22:04:23.013Z,25.50
2022-11-29T22:06:50.365Z,19.20
2022-11-29T22:09:18.005Z,19.60
2022-11-29T22:11:45.392Z,14.80
2022-11-29T22:14:18.532Z,20.80
2022-11-29T22:16:50.701Z,18.90
2022-11-29T22:19:27.390Z,23.60
2022-11-29T22:21:58.529Z,19.30
2022-11-29T22:26:55.288Z,8.50
2022-11-29T22:29:23.920Z,13.70
2022-11-29T22:31:54.715Z,15.30
2022-11-29T22:34:24.616Z,18.30
2022-11-29T22:36:52.880Z,20.80
2022-11-29T22:39:20.216Z,18.50
2022-11-29T22:41:53.671Z,17.60
2022-11-29T22:44:23.557Z,23.90
2022-11-29T22:46:51.508Z,20.30
2022-11-29T22:49:19.263Z,21.30
2022-11-29T22:51:46.931Z,24.70
2022-11-29T22:54:15.890Z,26.70
2022-11-29T22:56:44.558Z,25.10
2022-11-29T22:59:11.794Z,30.20
2022-11-29T23:01:40.394Z,28.60
2022-11-29T23:04:10.781Z,25.00
2022-11-29T23:06:43.187Z,24.40
2022-11-29T23:09:21.732Z,22.10
2022-11-29T23:11:51.965Z,25.10
2022-11-29T23:14:20.252Z,25.50
2022-11-29T23:16:48.001Z,24.30
2022-11-29T23:19:16.912Z,22.10
2022-11-29T23:21:45.317Z,24.30
2022-11-29T23:24:14.309Z,23.90
2022-11-29T23:26:45.397Z,21.40
2022-11-29T23:31:46.448Z,22.10
2022-11-29T23:34:14.151Z,17.90
2022-11-29T23:36:41.677Z,18.60
2022-11-29T23:39:10.035Z,19.40
2022-11-29T23:41:37.399Z,19.40
2022-11-29T23:44:05.618Z,20.40
2022-11-29T23:46:34.481Z,16.50
2022-11-29T23:49:02.086Z,15.40
2022-11-29T23:51:29.782Z,18.30
2022-11-29T23:53:57.425Z,17.10
2022-11-29T23:56:25.050Z,19.90
2022-11-29T23:58:52.923Z,22.50
